Terminal Aerodrome Forecast
Issued by NWS

Home | Current Version | Previous Version | Text Only | Print | Product List | Glossary On
Versions: 1 2 3 4 5 6 7 8 9 10 11 12 13 14 15 16
000
FTUS41 KRNK 231133
TAFBCB
TAF
KBCB 231133Z 2312/2412 22005KT P6SM SCT018 OVC070
      TEMPO 2318/2320 4SM SHRA OVC025
     FM232300 21008KT P6SM BKN050
     FM240300 19010G18KT 2SM SHRA OVC040
     FM240700 23011G19KT 3SM SHRA OVC020=

USA.gov is the U.S. government's official web portal to all federal, state and local government web resources and services.